sensor_id;sensor_type;location;lat;lon;timestamp;temperature;humidity
54898;DHT22;40800;52.704;6.398;2022-08-05T00:00:11;18.20;99.90
54898;DHT22;40800;52.704;6.398;2022-08-05T00:02:37;18.20;99.90
54898;DHT22;40800;52.704;6.398;2022-08-05T00:05:02;18.20;99.90
54898;DHT22;40800;52.704;6.398;2022-08-05T00:07:28;18.10;99.90
54898;DHT22;40800;52.704;6.398;2022-08-05T00:09:53;18.20;99.90
54898;DHT22;40800;52.704;6.398;2022-08-05T00:12:19;18.20;99.90
54898;DHT22;40800;52.704;6.398;2022-08-05T00:14:44;18.10;99.90
54898;DHT22;40800;52.704;6.398;2022-08-05T00:17:10;18.10;99.90
54898;DHT22;40800;52.704;6.398;2022-08-05T00:19:35;18.00;99.90
54898;DHT22;40800;52.704;6.398;2022-08-05T00:22:01;17.90;99.90
54898;DHT22;40800;52.704;6.398;2022-08-05T00:24:27;17.90;99.90
54898;DHT22;40800;52.704;6.398;2022-08-05T00:26:52;17.90;99.90
54898;DHT22;40800;52.704;6.398;2022-08-05T00:29:18;17.80;99.90
54898;DHT22;40800;52.704;6.398;2022-08-05T00:31:44;17.80;99.90
54898;DHT22;40800;52.704;6.398;2022-08-05T00:34:10;17.80;99.90
54898;DHT22;40800;52.704;6.398;2022-08-05T00:36:35;17.90;99.90
54898;DHT22;40800;52.704;6.398;2022-08-05T00:39:00;17.90;99.90
54898;DHT22;40800;52.704;6.398;2022-08-05T00:41:30;18.00;99.90
54898;DHT22;40800;52.704;6.398;2022-08-05T00:43:55;18.00;99.90
54898;DHT22;40800;52.704;6.398;2022-08-05T00:46:21;17.90;99.90
54898;DHT22;40800;52.704;6.398;2022-08-05T00:48:47;17.90;99.90
54898;DHT22;40800;52.704;6.398;2022-08-05T00:51:13;17.90;99.90
54898;DHT22;40800;52.704;6.398;2022-08-05T00:53:38;17.90;99.90
54898;DHT22;40800;52.704;6.398;2022-08-05T00:56:04;17.90;99.90
54898;DHT22;40800;52.704;6.398;2022-08-05T00:58:29;17.90;99.90
54898;DHT22;40800;52.704;6.398;2022-08-05T01:00:55;18.00;99.90
54898;DHT22;40800;52.704;6.398;2022-08-05T01:03:20;18.00;99.90
54898;DHT22;40800;52.704;6.398;2022-08-05T01:05:46;18.00;99.90
54898;DHT22;40800;52.704;6.398;2022-08-05T01:08:12;18.00;99.90
54898;DHT22;40800;52.704;6.398;2022-08-05T01:10:42;18.00;99.90
54898;DHT22;40800;52.704;6.398;2022-08-05T01:13:14;18.00;99.90
54898;DHT22;40800;52.704;6.398;2022-08-05T01:15:41;18.00;99.90
54898;DHT22;40800;52.704;6.398;2022-08-05T01:18:11;18.00;99.90
54898;DHT22;40800;52.704;6.398;2022-08-05T01:28:32;18.00;99.90
54898;DHT22;40800;52.704;6.398;2022-08-05T01:31:00;17.90;99.90
54898;DHT22;40800;52.704;6.398;2022-08-05T01:33:32;18.00;99.90
54898;DHT22;40800;52.704;6.398;2022-08-05T01:35:58;17.90;99.90
54898;DHT22;40800;52.704;6.398;2022-08-05T01:38:26;17.90;99.90
54898;DHT22;40800;52.704;6.398;2022-08-05T01:40:52;17.80;99.90
54898;DHT22;40800;52.704;6.398;2022-08-05T01:43:18;17.80;99.90
54898;DHT22;40800;52.704;6.398;2022-08-05T01:45:44;17.80;99.90
54898;DHT22;40800;52.704;6.398;2022-08-05T01:48:10;17.80;99.90
54898;DHT22;40800;52.704;6.398;2022-08-05T01:50:37;17.80;99.90
54898;DHT22;40800;52.704;6.398;2022-08-05T01:53:05;17.70;99.90
54898;DHT22;40800;52.704;6.398;2022-08-05T01:55:32;17.70;99.90
54898;DHT22;40800;52.704;6.398;2022-08-05T01:57:58;17.70;99.90
54898;DHT22;40800;52.704;6.398;2022-08-05T02:00:25;17.70;99.90
54898;DHT22;40800;52.704;6.398;2022-08-05T02:02:53;17.70;99.90
54898;DHT22;40800;52.704;6.398;2022-08-05T02:05:19;17.60;99.90
54898;DHT22;40800;52.704;6.398;2022-08-05T02:07:46;17.60;99.90
54898;DHT22;40800;52.704;6.398;2022-08-05T02:10:12;17.70;99.90
54898;DHT22;40800;52.704;6.398;2022-08-05T02:12:42;17.70;99.90
54898;DHT22;40800;52.704;6.398;2022-08-05T02:15:11;17.60;99.90
54898;DHT22;40800;52.704;6.398;2022-08-05T02:17:44;17.60;99.90
54898;DHT22;40800;52.704;6.398;2022-08-05T02:20:13;17.60;99.90
54898;DHT22;40800;52.704;6.398;2022-08-05T02:22:42;17.60;99.90
54898;DHT22;40800;52.704;6.398;2022-08-05T02:25:18;17.60;99.90
54898;DHT22;40800;52.704;6.398;2022-08-05T02:27:46;17.50;99.90
54898;DHT22;40800;52.704;6.398;2022-08-05T02:30:13;17.60;99.90
54898;DHT22;40800;52.704;6.398;2022-08-05T02:32:39;17.50;99.90
54898;DHT22;40800;52.704;6.398;2022-08-05T02:35:06;17.50;99.90
54898;DHT22;40800;52.704;6.398;2022-08-05T02:37:34;17.40;99.90
54898;DHT22;40800;52.704;6.398;2022-08-05T02:40:01;17.30;99.90
54898;DHT22;40800;52.704;6.398;2022-08-05T02:42:27;17.30;99.90
54898;DHT22;40800;52.704;6.398;2022-08-05T02:44:53;17.20;99.90
54898;DHT22;40800;52.704;6.398;2022-08-05T02:47:19;17.20;99.90
54898;DHT22;40800;52.704;6.398;2022-08-05T02:49:45;17.10;99.90
54898;DHT22;40800;52.704;6.398;2022-08-05T02:52:14;17.10;99.90
54898;DHT22;40800;52.704;6.398;2022-08-05T02:54:41;17.10;99.90
54898;DHT22;40800;52.704;6.398;2022-08-05T02:57:07;17.10;99.90
54898;DHT22;40800;52.704;6.398;2022-08-05T02:59:34;17.00;99.90
54898;DHT22;40800;52.704;6.398;2022-08-05T03:02:00;17.00;99.90
54898;DHT22;40800;52.704;6.398;2022-08-05T03:04:26;16.90;99.90
54898;DHT22;40800;52.704;6.398;2022-08-05T03:06:52;17.00;99.90
54898;DHT22;40800;52.704;6.398;2022-08-05T03:09:18;17.00;99.90
54898;DHT22;40800;52.704;6.398;2022-08-05T03:11:44;16.90;99.90
54898;DHT22;40800;52.704;6.398;2022-08-05T03:14:10;16.90;99.90
54898;DHT22;40800;52.704;6.398;2022-08-05T03:16:35;16.90;99.90
54898;DHT22;40800;52.704;6.398;2022-08-05T03:19:01;17.00;99.90
54898;DHT22;40800;52.704;6.398;2022-08-05T03:21:27;17.00;99.90
54898;DHT22;40800;52.704;6.398;2022-08-05T03:23:52;16.90;99.90
54898;DHT22;40800;52.704;6.398;2022-08-05T03:26:18;17.10;99.90
54898;DHT22;40800;52.704;6.398;2022-08-05T03:28:44;17.10;99.90
54898;DHT22;40800;52.704;6.398;2022-08-05T03:31:10;17.10;99.90
54898;DHT22;40800;52.704;6.398;2022-08-05T03:33:36;17.10;99.90
54898;DHT22;40800;52.704;6.398;2022-08-05T03:36:02;17.10;99.90
54898;DHT22;40800;52.704;6.398;2022-08-05T03:38:28;17.20;99.90
54898;DHT22;40800;52.704;6.398;2022-08-05T03:40:54;17.20;99.90
54898;DHT22;40800;52.704;6.398;2022-08-05T03:43:20;17.20;99.90
54898;DHT22;40800;52.704;6.398;2022-08-05T03:45:48;17.20;99.90
54898;DHT22;40800;52.704;6.398;2022-08-05T03:48:14;17.20;99.90
54898;DHT22;40800;52.704;6.398;2022-08-05T03:51:23;17.20;99.90
54898;DHT22;40800;52.704;6.398;2022-08-05T03:53:32;17.20;99.90
54898;DHT22;40800;52.704;6.398;2022-08-05T03:56:03;17.30;99.90
54898;DHT22;40800;52.704;6.398;2022-08-05T03:58:30;17.30;99.90
54898;DHT22;40800;52.704;6.398;2022-08-05T04:00:58;17.40;99.90
54898;DHT22;40800;52.704;6.398;2022-08-05T04:03:24;17.30;99.90
54898;DHT22;40800;52.704;6.398;2022-08-05T04:05:50;17.20;99.90
54898;DHT22;40800;52.704;6.398;2022-08-05T04:08:16;17.20;99.90
54898;DHT22;40800;52.704;6.398;2022-08-05T04:10:43;17.20;99.90
54898;DHT22;40800;52.704;6.398;2022-08-05T04:13:09;17.10;99.90
54898;DHT22;40800;52.704;6.398;2022-08-05T04:15:34;17.10;99.90
54898;DHT22;40800;52.704;6.398;2022-08-05T04:18:01;17.10;99.90
54898;DHT22;40800;52.704;6.398;2022-08-05T04:20:26;17.10;99.90
54898;DHT22;40800;52.704;6.398;2022-08-05T04:22:52;17.20;99.90
54898;DHT22;40800;52.704;6.398;2022-08-05T04:25:17;17.10;99.90
54898;DHT22;40800;52.704;6.398;2022-08-05T04:27:43;17.10;99.90
54898;DHT22;40800;52.704;6.398;2022-08-05T04:30:08;16.90;99.90
54898;DHT22;40800;52.704;6.398;2022-08-05T04:32:34;17.10;99.90
54898;DHT22;40800;52.704;6.398;2022-08-05T04:35:00;17.10;99.90
54898;DHT22;40800;52.704;6.398;2022-08-05T04:37:25;17.10;99.90
54898;DHT22;40800;52.704;6.398;2022-08-05T04:39:51;17.00;99.90
54898;DHT22;40800;52.704;6.398;2022-08-05T04:42:17;17.10;99.90
54898;DHT22;40800;52.704;6.398;2022-08-05T04:44:42;17.10;99.90
54898;DHT22;40800;52.704;6.398;2022-08-05T04:47:08;17.20;99.90
54898;DHT22;40800;52.704;6.398;2022-08-05T04:49:33;17.20;99.90
54898;DHT22;40800;52.704;6.398;2022-08-05T04:51:59;17.20;99.90
54898;DHT22;40800;52.704;6.398;2022-08-05T04:54:24;17.20;99.90
54898;DHT22;40800;52.704;6.398;2022-08-05T04:56:53;17.00;99.90
54898;DHT22;40800;52.704;6.398;2022-08-05T04:59:19;17.10;99.90
54898;DHT22;40800;52.704;6.398;2022-08-05T05:01:44;17.10;99.90
54898;DHT22;40800;52.704;6.398;2022-08-05T05:04:10;17.00;99.90
54898;DHT22;40800;52.704;6.398;2022-08-05T05:06:36;17.00;99.90
54898;DHT22;40800;52.704;6.398;2022-08-05T05:09:02;16.90;99.90
54898;DHT22;40800;52.704;6.398;2022-08-05T05:11:27;16.90;99.90
54898;DHT22;40800;52.704;6.398;2022-08-05T05:13:53;16.90;99.90
54898;DHT22;40800;52.704;6.398;2022-08-05T05:16:18;16.90;99.90
54898;DHT22;40800;52.704;6.398;2022-08-05T05:18:44;16.90;99.90
54898;DHT22;40800;52.704;6.398;2022-08-05T05:21:09;16.90;99.90
54898;DHT22;40800;52.704;6.398;2022-08-05T05:23:35;16.90;99.90
54898;DHT22;40800;52.704;6.398;2022-08-05T05:26:00;17.00;99.90
54898;DHT22;40800;52.704;6.398;2022-08-05T05:28:26;17.00;99.90
54898;DHT22;40800;52.704;6.398;2022-08-05T05:30:51;17.10;99.90
54898;DHT22;40800;52.704;6.398;2022-08-05T05:33:17;17.00;99.90
54898;DHT22;40800;52.704;6.398;2022-08-05T05:35:43;17.00;99.90
54898;DHT22;40800;52.704;6.398;2022-08-05T05:38:09;17.10;99.90
54898;DHT22;40800;52.704;6.398;2022-08-05T05:40:34;17.10;99.90
54898;DHT22;40800;52.704;6.398;2022-08-05T05:43:00;17.00;99.90
54898;DHT22;40800;52.704;6.398;2022-08-05T05:45:26;17.10;99.90
54898;DHT22;40800;52.704;6.398;2022-08-05T05:47:51;17.00;99.90
54898;DHT22;40800;52.704;6.398;2022-08-05T05:50:17;17.00;99.90
54898;DHT22;40800;52.704;6.398;2022-08-05T05:52:44;17.00;99.90
54898;DHT22;40800;52.704;6.398;2022-08-05T05:55:12;16.90;99.90
54898;DHT22;40800;52.704;6.398;2022-08-05T05:57:38;17.10;99.90
54898;DHT22;40800;52.704;6.398;2022-08-05T06:00:05;17.00;99.90
54898;DHT22;40800;52.704;6.398;2022-08-05T06:02:31;17.10;99.90
54898;DHT22;40800;52.704;6.398;2022-08-05T06:04:56;17.10;99.90
54898;DHT22;40800;52.704;6.398;2022-08-05T06:07:22;17.20;99.90
54898;DHT22;40800;52.704;6.398;2022-08-05T06:09:47;17.00;99.90
54898;DHT22;40800;52.704;6.398;2022-08-05T06:12:13;17.10;99.90
54898;DHT22;40800;52.704;6.398;2022-08-05T06:14:38;17.10;99.90
54898;DHT22;40800;52.704;6.398;2022-08-05T06:17:04;17.10;99.90
54898;DHT22;40800;52.704;6.398;2022-08-05T06:19:29;17.10;99.90
54898;DHT22;40800;52.704;6.398;2022-08-05T06:21:55;17.10;99.90
54898;DHT22;40800;52.704;6.398;2022-08-05T06:24:20;16.90;99.90
54898;DHT22;40800;52.704;6.398;2022-08-05T06:26:46;16.90;99.90
54898;DHT22;40800;52.704;6.398;2022-08-05T06:29:11;17.10;99.90
54898;DHT22;40800;52.704;6.398;2022-08-05T06:31:37;17.10;99.90
54898;DHT22;40800;52.704;6.398;2022-08-05T06:34:03;17.10;99.90
54898;DHT22;40800;52.704;6.398;2022-08-05T06:36:29;17.10;99.90
54898;DHT22;40800;52.704;6.398;2022-08-05T06:38:54;17.20;99.90
54898;DHT22;40800;52.704;6.398;2022-08-05T06:41:20;17.20;99.90
54898;DHT22;40800;52.704;6.398;2022-08-05T06:43:46;17.20;99.90
54898;DHT22;40800;52.704;6.398;2022-08-05T06:46:11;17.40;99.90
54898;DHT22;40800;52.704;6.398;2022-08-05T06:48:37;17.40;99.90
54898;DHT22;40800;52.704;6.398;2022-08-05T07:00:46;17.80;99.90
54898;DHT22;40800;52.704;6.398;2022-08-05T07:03:11;17.90;99.90
54898;DHT22;40800;52.704;6.398;2022-08-05T07:05:37;17.90;99.90
54898;DHT22;40800;52.704;6.398;2022-08-05T07:08:02;18.10;99.90
54898;DHT22;40800;52.704;6.398;2022-08-05T07:10:28;18.10;99.90
54898;DHT22;40800;52.704;6.398;2022-08-05T07:12:53;18.10;99.90
54898;DHT22;40800;52.704;6.398;2022-08-05T07:15:37;18.40;99.90
54898;DHT22;40800;52.704;6.398;2022-08-05T07:18:21;18.40;99.90
54898;DHT22;40800;52.704;6.398;2022-08-05T07:20:48;18.60;99.90
54898;DHT22;40800;52.704;6.398;2022-08-05T07:23:14;18.80;99.90
54898;DHT22;40800;52.704;6.398;2022-08-05T07:25:39;18.80;99.90
54898;DHT22;40800;52.704;6.398;2022-08-05T07:28:05;19.10;99.90
54898;DHT22;40800;52.704;6.398;2022-08-05T07:30:31;19.20;99.90
54898;DHT22;40800;52.704;6.398;2022-08-05T07:32:57;19.30;99.90
54898;DHT22;40800;52.704;6.398;2022-08-05T07:35:22;19.50;99.90
54898;DHT22;40800;52.704;6.398;2022-08-05T07:37:48;19.40;99.90
54898;DHT22;40800;52.704;6.398;2022-08-05T07:40:13;19.70;99.90
54898;DHT22;40800;52.704;6.398;2022-08-05T07:42:39;20.00;99.90
54898;DHT22;40800;52.704;6.398;2022-08-05T07:45:04;20.20;99.90
54898;DHT22;40800;52.704;6.398;2022-08-05T07:47:30;20.20;99.90
54898;DHT22;40800;52.704;6.398;2022-08-05T07:49:55;20.10;99.90
54898;DHT22;40800;52.704;6.398;2022-08-05T07:52:21;20.10;99.90
54898;DHT22;40800;52.704;6.398;2022-08-05T07:54:46;20.30;99.90
54898;DHT22;40800;52.704;6.398;2022-08-05T07:57:12;20.40;99.90
54898;DHT22;40800;52.704;6.398;2022-08-05T07:59:38;20.50;99.90
54898;DHT22;40800;52.704;6.398;2022-08-05T08:02:04;20.60;99.90
54898;DHT22;40800;52.704;6.398;2022-08-05T08:04:31;20.50;99.90
54898;DHT22;40800;52.704;6.398;2022-08-05T08:06:56;20.50;99.90
54898;DHT22;40800;52.704;6.398;2022-08-05T08:09:25;20.50;99.90
54898;DHT22;40800;52.704;6.398;2022-08-05T08:11:50;20.40;99.90
54898;DHT22;40800;52.704;6.398;2022-08-05T08:14:16;19.90;99.90
54898;DHT22;40800;52.704;6.398;2022-08-05T08:16:43;19.80;99.90
54898;DHT22;40800;52.704;6.398;2022-08-05T08:19:09;19.50;99.90
54898;DHT22;40800;52.704;6.398;2022-08-05T08:21:34;19.60;99.90
54898;DHT22;40800;52.704;6.398;2022-08-05T08:24:00;19.90;99.90
54898;DHT22;40800;52.704;6.398;2022-08-05T08:26:25;20.10;99.90
54898;DHT22;40800;52.704;6.398;2022-08-05T08:28:51;20.30;99.90
54898;DHT22;40800;52.704;6.398;2022-08-05T08:31:16;20.40;99.90
54898;DHT22;40800;52.704;6.398;2022-08-05T08:33:45;20.40;99.90
54898;DHT22;40800;52.704;6.398;2022-08-05T08:36:10;20.30;99.90
54898;DHT22;40800;52.704;6.398;2022-08-05T08:38:36;20.50;99.90
54898;DHT22;40800;52.704;6.398;2022-08-05T08:41:06;20.40;99.90
54898;DHT22;40800;52.704;6.398;2022-08-05T08:43:33;20.50;99.90
54898;DHT22;40800;52.704;6.398;2022-08-05T08:45:59;20.50;99.90
54898;DHT22;40800;52.704;6.398;2022-08-05T08:48:25;20.30;99.90
54898;DHT22;40800;52.704;6.398;2022-08-05T08:50:52;20.60;99.90
54898;DHT22;40800;52.704;6.398;2022-08-05T08:53:17;20.90;99.90
54898;DHT22;40800;52.704;6.398;2022-08-05T08:55:43;20.90;99.90
54898;DHT22;40800;52.704;6.398;2022-08-05T19:13:56;16.90;99.90
54898;DHT22;40800;52.704;6.398;2022-08-05T19:16:22;16.70;99.90
54898;DHT22;40800;52.704;6.398;2022-08-05T19:18:47;16.60;99.90
54898;DHT22;40800;52.704;6.398;2022-08-05T19:21:13;16.40;99.90
54898;DHT22;40800;52.704;6.398;2022-08-05T19:23:41;16.20;99.90
54898;DHT22;40800;52.704;6.398;2022-08-05T19:26:07;16.00;99.90
54898;DHT22;40800;52.704;6.398;2022-08-05T19:28:32;15.80;99.90
54898;DHT22;40800;52.704;6.398;2022-08-05T19:30:59;15.80;99.90
54898;DHT22;40800;52.704;6.398;2022-08-05T19:33:24;15.80;99.90
54898;DHT22;40800;52.704;6.398;2022-08-05T19:35:51;15.70;99.90
54898;DHT22;40800;52.704;6.398;2022-08-05T19:38:16;15.60;99.90
54898;DHT22;40800;52.704;6.398;2022-08-05T19:40:42;15.80;99.90
54898;DHT22;40800;52.704;6.398;2022-08-05T19:43:10;15.60;99.90
54898;DHT22;40800;52.704;6.398;2022-08-05T19:45:35;15.60;99.90
54898;DHT22;40800;52.704;6.398;2022-08-05T19:48:01;15.50;99.90
54898;DHT22;40800;52.704;6.398;2022-08-05T19:50:26;15.30;99.90
54898;DHT22;40800;52.704;6.398;2022-08-05T19:52:53;15.20;99.90
54898;DHT22;40800;52.704;6.398;2022-08-05T19:55:18;15.30;99.90
54898;DHT22;40800;52.704;6.398;2022-08-05T19:57:43;15.10;99.90
54898;DHT22;40800;52.704;6.398;2022-08-05T20:00:09;15.10;99.90
54898;DHT22;40800;52.704;6.398;2022-08-05T20:02:35;15.00;99.90
54898;DHT22;40800;52.704;6.398;2022-08-05T20:05:00;14.80;99.90
54898;DHT22;40800;52.704;6.398;2022-08-05T20:07:26;14.80;99.90
54898;DHT22;40800;52.704;6.398;2022-08-05T20:09:52;14.70;99.90
54898;DHT22;40800;52.704;6.398;2022-08-05T20:12:17;14.60;99.90
54898;DHT22;40800;52.704;6.398;2022-08-05T20:14:43;14.40;99.90
54898;DHT22;40800;52.704;6.398;2022-08-05T20:17:09;14.40;99.90
54898;DHT22;40800;52.704;6.398;2022-08-05T20:19:35;14.20;99.90
54898;DHT22;40800;52.704;6.398;2022-08-05T20:22:00;14.10;99.90
54898;DHT22;40800;52.704;6.398;2022-08-05T20:24:26;14.10;99.90
54898;DHT22;40800;52.704;6.398;2022-08-05T20:26:53;14.00;99.90
54898;DHT22;40800;52.704;6.398;2022-08-05T20:29:19;13.90;99.90
54898;DHT22;40800;52.704;6.398;2022-08-05T20:31:44;13.80;99.90
54898;DHT22;40800;52.704;6.398;2022-08-05T20:34:10;13.50;99.90
54898;DHT22;40800;52.704;6.398;2022-08-05T20:36:35;13.40;99.90
54898;DHT22;40800;52.704;6.398;2022-08-05T20:39:01;13.20;99.90
54898;DHT22;40800;52.704;6.398;2022-08-05T20:41:27;13.10;99.90
54898;DHT22;40800;52.704;6.398;2022-08-05T20:43:53;12.50;99.90
54898;DHT22;40800;52.704;6.398;2022-08-05T20:46:19;12.50;99.90
54898;DHT22;40800;52.704;6.398;2022-08-05T20:48:45;13.00;99.90
54898;DHT22;40800;52.704;6.398;2022-08-05T20:51:10;13.40;99.90
54898;DHT22;40800;52.704;6.398;2022-08-05T20:53:36;12.70;99.90
54898;DHT22;40800;52.704;6.398;2022-08-05T20:56:02;12.50;99.90
54898;DHT22;40800;52.704;6.398;2022-08-05T20:58:27;12.50;99.90
54898;DHT22;40800;52.704;6.398;2022-08-05T21:00:53;12.60;99.90
54898;DHT22;40800;52.704;6.398;2022-08-05T21:03:18;13.00;99.90
54898;DHT22;40800;52.704;6.398;2022-08-05T21:05:44;12.40;99.90
54898;DHT22;40800;52.704;6.398;2022-08-05T21:08:09;12.60;99.90
54898;DHT22;40800;52.704;6.398;2022-08-05T21:10:35;12.50;99.90
54898;DHT22;40800;52.704;6.398;2022-08-05T21:13:00;12.20;99.90
54898;DHT22;40800;52.704;6.398;2022-08-05T21:15:26;11.50;99.90
54898;DHT22;40800;52.704;6.398;2022-08-05T21:17:51;12.30;99.90
54898;DHT22;40800;52.704;6.398;2022-08-05T21:20:17;12.40;99.90
54898;DHT22;40800;52.704;6.398;2022-08-05T21:22:43;11.70;99.90
54898;DHT22;40800;52.704;6.398;2022-08-05T21:25:08;12.80;99.90
54898;DHT22;40800;52.704;6.398;2022-08-05T21:27:34;11.70;99.90
54898;DHT22;40800;52.704;6.398;2022-08-05T21:29:59;12.50;99.90
54898;DHT22;40800;52.704;6.398;2022-08-05T21:32:26;11.70;99.90
54898;DHT22;40800;52.704;6.398;2022-08-05T21:34:52;11.60;99.90
54898;DHT22;40800;52.704;6.398;2022-08-05T21:37:18;11.60;99.90
54898;DHT22;40800;52.704;6.398;2022-08-05T21:39:44;11.50;99.90
54898;DHT22;40800;52.704;6.398;2022-08-05T21:42:09;12.40;99.90
54898;DHT22;40800;52.704;6.398;2022-08-05T21:44:35;12.30;99.90
54898;DHT22;40800;52.704;6.398;2022-08-05T21:47:00;11.40;99.90
54898;DHT22;40800;52.704;6.398;2022-08-05T21:49:26;12.00;99.90
54898;DHT22;40800;52.704;6.398;2022-08-05T21:51:52;11.90;99.90
54898;DHT22;40800;52.704;6.398;2022-08-05T21:54:17;11.70;99.90
54898;DHT22;40800;52.704;6.398;2022-08-05T21:56:43;11.00;99.90
54898;DHT22;40800;52.704;6.398;2022-08-05T21:59:09;10.90;99.90
54898;DHT22;40800;52.704;6.398;2022-08-05T22:01:34;10.90;99.90
54898;DHT22;40800;52.704;6.398;2022-08-05T22:04:00;10.90;99.90
54898;DHT22;40800;52.704;6.398;2022-08-05T22:06:25;10.90;99.90
54898;DHT22;40800;52.704;6.398;2022-08-05T22:08:51;11.60;99.90
54898;DHT22;40800;52.704;6.398;2022-08-05T22:11:16;11.30;99.90
54898;DHT22;40800;52.704;6.398;2022-08-05T22:13:42;12.70;99.90
54898;DHT22;40800;52.704;6.398;2022-08-05T22:16:08;11.50;99.90
54898;DHT22;40800;52.704;6.398;2022-08-05T22:18:33;11.50;99.90
54898;DHT22;40800;52.704;6.398;2022-08-05T22:20:59;12.10;99.90
54898;DHT22;40800;52.704;6.398;2022-08-05T22:23:24;12.30;99.90
54898;DHT22;40800;52.704;6.398;2022-08-05T22:26:09;11.70;99.90
54898;DHT22;40800;52.704;6.398;2022-08-05T22:28:53;12.40;99.90
54898;DHT22;40800;52.704;6.398;2022-08-05T22:31:18;11.40;99.90
54898;DHT22;40800;52.704;6.398;2022-08-05T22:33:44;11.30;99.90
54898;DHT22;40800;52.704;6.398;2022-08-05T22:36:09;11.40;99.90
54898;DHT22;40800;52.704;6.398;2022-08-05T22:38:35;11.50;99.90
54898;DHT22;40800;52.704;6.398;2022-08-05T22:41:01;11.70;99.90
54898;DHT22;40800;52.704;6.398;2022-08-05T22:43:26;11.90;99.90
54898;DHT22;40800;52.704;6.398;2022-08-05T22:45:51;11.90;99.90
54898;DHT22;40800;52.704;6.398;2022-08-05T22:48:17;12.70;99.90
54898;DHT22;40800;52.704;6.398;2022-08-05T22:50:42;11.80;99.90
54898;DHT22;40800;52.704;6.398;2022-08-05T22:53:08;11.80;99.90
54898;DHT22;40800;52.704;6.398;2022-08-05T22:55:34;11.80;99.90
54898;DHT22;40800;52.704;6.398;2022-08-05T22:58:00;11.40;99.90
54898;DHT22;40800;52.704;6.398;2022-08-05T23:00:25;11.40;99.90
54898;DHT22;40800;52.704;6.398;2022-08-05T23:02:51;11.50;99.90
54898;DHT22;40800;52.704;6.398;2022-08-05T23:05:17;12.10;99.90
54898;DHT22;40800;52.704;6.398;2022-08-05T23:07:43;12.50;99.90
54898;DHT22;40800;52.704;6.398;2022-08-05T23:10:09;12.60;99.90
54898;DHT22;40800;52.704;6.398;2022-08-05T23:12:34;11.50;99.90
54898;DHT22;40800;52.704;6.398;2022-08-05T23:15:00;11.50;99.90
54898;DHT22;40800;52.704;6.398;2022-08-05T23:17:26;11.40;99.90
54898;DHT22;40800;52.704;6.398;2022-08-05T23:19:52;11.50;99.90
54898;DHT22;40800;52.704;6.398;2022-08-05T23:22:18;11.10;99.90
54898;DHT22;40800;52.704;6.398;2022-08-05T23:24:43;11.90;99.90
54898;DHT22;40800;52.704;6.398;2022-08-05T23:27:09;10.90;99.90
54898;DHT22;40800;52.704;6.398;2022-08-05T23:29:35;10.90;99.90
54898;DHT22;40800;52.704;6.398;2022-08-05T23:32:00;10.90;99.90
54898;DHT22;40800;52.704;6.398;2022-08-05T23:34:26;10.50;99.90
54898;DHT22;40800;52.704;6.398;2022-08-05T23:36:51;10.50;99.90
54898;DHT22;40800;52.704;6.398;2022-08-05T23:39:17;10.50;99.90
54898;DHT22;40800;52.704;6.398;2022-08-05T23:41:43;10.50;99.90
54898;DHT22;40800;52.704;6.398;2022-08-05T23:44:08;10.70;99.90
54898;DHT22;40800;52.704;6.398;2022-08-05T23:46:34;10.70;99.90
54898;DHT22;40800;52.704;6.398;2022-08-05T23:48:59;11.70;99.90
54898;DHT22;40800;52.704;6.398;2022-08-05T23:51:26;10.60;99.90
54898;DHT22;40800;52.704;6.398;2022-08-05T23:53:52;10.50;99.90
54898;DHT22;40800;52.704;6.398;2022-08-05T23:56:17;10.50;99.90
54898;DHT22;40800;52.704;6.398;2022-08-05T23:58:42;11.40;99.90
